Time;durP1;ratioP1;P1;durP2;ratioP2;P2;SDS_P1;SDS_P2;PMS_P1;PMS_P2;Temp;Humidity;BMP_temperature;BMP_pressure;BME280_temperature;BME280_humidity;BME280_pressure;Samples;Min_cycle;Max_cycle;Signal;HPM_P1;HPM_P2
2023/09/17 00:00:37;;;;;;;0.95;0.85;;;17.00;99.90;;;;;;5094573;28;20123;-73
2023/09/17 00:03:03;;;;;;;0.88;0.82;;;17.00;99.90;;;;;;5093600;28;20036;-72
2023/09/17 00:05:31;;;;;;;3.10;1.38;;;17.00;99.90;;;;;;5093928;28;20047;-74
2023/09/17 00:07:57;;;;;;;0.55;0.55;;;16.90;99.90;;;;;;5094146;28;20040;-75
2023/09/17 00:10:22;;;;;;;0.80;0.67;;;17.00;99.90;;;;;;5094351;28;20055;-74
2023/09/17 00:12:53;;;;;;;0.43;0.43;;;17.00;99.90;;;;;;5094578;28;20036;-76
2023/09/17 00:15:22;;;;;;;0.60;0.60;;;16.90;99.90;;;;;;5094592;28;20462;-74
2023/09/17 00:17:48;;;;;;;0.38;0.32;;;16.90;99.90;;;;;;5094128;28;20032;-72
2023/09/17 00:20:15;;;;;;;0.40;0.40;;;16.90;99.90;;;;;;5094377;28;20040;-73
2023/09/17 00:22:40;;;;;;;0.57;0.57;;;16.90;99.90;;;;;;5093949;28;20448;-75
2023/09/17 00:25:06;;;;;;;0.57;0.57;;;16.90;99.90;;;;;;5094131;28;20054;-74
2023/09/17 00:27:33;;;;;;;0.97;0.70;;;16.80;99.90;;;;;;5094091;28;20073;-75
2023/09/17 00:29:58;;;;;;;0.70;0.55;;;16.80;99.90;;;;;;5094255;28;20044;-74
2023/09/17 00:32:24;;;;;;;1.00;0.83;;;16.80;99.90;;;;;;5094049;28;20126;-72
2023/09/17 00:34:50;;;;;;;0.70;0.70;;;16.80;99.90;;;;;;5093892;28;20040;-74
2023/09/17 00:37:16;;;;;;;0.50;0.50;;;16.80;99.90;;;;;;5093569;28;20040;-73
2023/09/17 00:39:42;;;;;;;0.38;0.38;;;16.70;99.90;;;;;;5093933;28;20079;-73
2023/09/17 00:42:07;;;;;;;0.40;0.40;;;16.70;99.90;;;;;;5094087;28;20050;-75
2023/09/17 00:44:33;;;;;;;0.40;0.40;;;16.80;99.90;;;;;;5092424;28;20063;-72
2023/09/17 00:47:02;;;;;;;0.50;0.50;;;16.70;99.90;;;;;;5093681;28;20044;-73
2023/09/17 00:49:28;;;;;;;0.47;0.47;;;16.70;99.90;;;;;;5093805;28;20048;-73
2023/09/17 00:51:55;;;;;;;0.75;0.75;;;16.70;99.90;;;;;;5093818;28;20061;-72
2023/09/17 00:54:23;;;;;;;0.40;0.40;;;16.70;99.90;;;;;;5093794;28;20050;-75
2023/09/17 00:56:51;;;;;;;0.80;0.80;;;16.60;99.90;;;;;;5093687;28;20043;-74
2023/09/17 00:59:17;;;;;;;0.50;0.47;;;16.60;99.90;;;;;;5093853;28;20044;-72
2023/09/17 01:01:43;;;;;;;0.73;0.73;;;16.60;99.90;;;;;;5093807;28;20142;-72
2023/09/17 01:04:10;;;;;;;0.60;0.60;;;16.60;99.90;;;;;;5093660;28;20054;-72
2023/09/17 01:06:37;;;;;;;0.50;0.50;;;16.50;99.90;;;;;;5093681;28;20051;-73
2023/09/17 01:09:04;;;;;;;0.47;0.40;;;16.60;99.90;;;;;;5093844;28;20048;-75
2023/09/17 01:11:30;;;;;;;0.50;0.50;;;16.50;99.90;;;;;;5093753;28;20051;-73
2023/09/17 01:14:00;;;;;;;0.60;0.60;;;16.60;99.90;;;;;;5093555;28;20048;-75
2023/09/17 01:16:28;;;;;;;0.30;0.30;;;16.60;99.90;;;;;;5093197;28;20091;-73
2023/09/17 01:18:54;;;;;;;1.05;0.40;;;16.50;99.90;;;;;;5097476;28;20392;-75
2023/09/17 01:21:40;;;;;;;0.47;0.47;;;16.50;99.90;;;;;;5097605;28;20053;-73
2023/09/17 01:24:26;;;;;;;0.43;0.38;;;16.60;99.90;;;;;;5097827;28;20135;-73
2023/09/17 01:26:59;;;;;;;0.45;0.45;;;16.60;99.90;;;;;;5097610;28;20036;-72
2023/09/17 01:29:26;;;;;;;0.57;0.57;;;16.60;99.90;;;;;;5097508;28;20487;-74
2023/09/17 01:31:55;;;;;;;0.55;0.45;;;16.60;99.90;;;;;;5097839;28;20076;-72
2023/09/17 01:34:21;;;;;;;1.00;0.80;;;16.60;99.90;;;;;;5095936;28;20097;-75
2023/09/17 01:36:47;;;;;;;0.70;0.70;;;16.60;99.90;;;;;;5097305;28;20035;-72
2023/09/17 01:39:18;;;;;;;0.50;0.50;;;16.60;99.90;;;;;;5097318;28;20085;-75
2023/09/17 01:41:45;;;;;;;1.38;0.50;;;16.60;99.90;;;;;;5097239;28;20089;-75
2023/09/17 01:44:12;;;;;;;0.50;0.50;;;16.50;99.90;;;;;;5097631;28;20097;-73
2023/09/17 01:46:39;;;;;;;;;;;16.60;99.90;;;;;;5097616;28;20424;-72
2023/09/17 01:49:06;;;;;;;0.77;0.77;;;16.50;99.90;;;;;;5097366;28;20003;-73
2023/09/17 01:51:33;;;;;;;0.52;0.50;;;16.50;99.90;;;;;;5096780;28;20058;-73
2023/09/17 01:53:59;;;;;;;0.50;0.50;;;16.50;99.90;;;;;;5096872;28;20471;-72
2023/09/17 01:56:26;;;;;;;0.35;0.35;;;16.50;99.90;;;;;;5096947;28;20047;-75
2023/09/17 01:58:51;;;;;;;0.47;0.47;;;16.50;99.90;;;;;;5096720;28;20048;-71
2023/09/17 02:01:18;;;;;;;1.47;0.53;;;16.50;99.90;;;;;;5096858;28;20047;-71
2023/09/17 02:03:43;;;;;;;0.47;0.47;;;16.60;99.90;;;;;;5096807;28;20137;-73
2023/09/17 02:06:09;;;;;;;0.87;0.77;;;16.50;99.90;;;;;;5097135;28;20463;-72
2023/09/17 02:08:36;;;;;;;0.80;0.80;;;16.60;99.90;;;;;;5096698;28;20047;-71
2023/09/17 02:11:04;;;;;;;1.65;0.57;;;16.50;99.90;;;;;;5096586;28;20044;-75
2023/09/17 02:13:30;;;;;;;0.40;0.40;;;16.60;99.90;;;;;;5097192;28;20379;-73
2023/09/17 02:15:55;;;;;;;0.60;0.60;;;16.60;99.90;;;;;;5096590;28;20054;-74
2023/09/17 02:18:21;;;;;;;1.93;0.83;;;16.50;99.90;;;;;;5096494;28;20036;-75
2023/09/17 02:20:47;;;;;;;0.60;0.60;;;16.40;99.90;;;;;;5096441;28;20094;-71
2023/09/17 02:23:13;;;;;;;0.30;0.30;;;16.50;99.90;;;;;;5096498;28;20076;-75
2023/09/17 02:25:38;;;;;;;1.07;0.93;;;16.50;99.90;;;;;;5096298;28;20036;-71
2023/09/17 02:28:04;;;;;;;0.50;0.50;;;16.50;99.90;;;;;;5095945;28;20040;-73
2023/09/17 02:30:30;;;;;;;0.70;0.70;;;16.50;99.90;;;;;;5096321;28;20127;-74
2023/09/17 02:32:56;;;;;;;0.70;0.70;;;16.50;99.90;;;;;;5096133;28;20483;-72
2023/09/17 02:35:22;;;;;;;1.77;0.87;;;16.50;99.90;;;;;;5096272;28;20105;-75
2023/09/17 02:37:47;;;;;;;0.77;0.70;;;16.50;99.90;;;;;;5096104;28;20040;-72
2023/09/17 02:40:14;;;;;;;0.60;0.60;;;16.40;99.90;;;;;;5096077;28;20528;-73
2023/09/17 02:42:39;;;;;;;1.47;1.10;;;16.50;99.90;;;;;;5096215;28;20036;-74
2023/09/17 02:45:08;;;;;;;0.50;0.50;;;16.40;99.90;;;;;;5096118;28;20122;-73
2023/09/17 02:47:34;;;;;;;0.70;0.70;;;16.50;99.90;;;;;;5096173;28;20047;-74
2023/09/17 02:50:00;;;;;;;0.70;0.70;;;16.50;99.90;;;;;;5095970;28;20383;-74
2023/09/17 02:52:26;;;;;;;0.40;0.40;;;16.40;99.90;;;;;;5095871;28;20051;-74
2023/09/17 02:54:54;;;;;;;0.40;0.40;;;16.40;99.90;;;;;;5095798;28;20493;-74
2023/09/17 02:57:19;;;;;;;0.95;0.65;;;16.40;99.90;;;;;;5095731;28;20058;-73
2023/09/17 02:59:46;;;;;;;0.97;0.83;;;16.30;99.90;;;;;;5095896;28;20036;-73
2023/09/17 03:02:11;;;;;;;0.47;0.47;;;16.40;99.90;;;;;;5096030;28;20066;-73
2023/09/17 03:04:37;;;;;;;0.50;0.50;;;16.40;99.90;;;;;;5095696;28;20537;-74
2023/09/17 03:07:04;;;;;;;0.87;0.60;;;16.30;99.90;;;;;;5095678;28;20474;-71
2023/09/17 03:09:30;;;;;;;0.50;0.50;;;16.40;99.90;;;;;;5095698;28;20048;-74
2023/09/17 03:11:55;;;;;;;1.20;0.80;;;16.30;99.90;;;;;;5095561;28;20046;-75
2023/09/17 03:14:21;;;;;;;1.10;1.00;;;16.40;99.90;;;;;;5095446;28;20472;-74
2023/09/17 03:16:47;;;;;;;0.87;0.77;;;16.40;99.90;;;;;;5095112;28;20044;-73
2023/09/17 03:19:14;;;;;;;0.33;0.33;;;16.30;99.90;;;;;;5095529;28;20084;-73
2023/09/17 03:21:40;;;;;;;0.45;0.45;;;16.30;99.90;;;;;;5095423;28;20123;-74
2023/09/17 03:24:07;;;;;;;0.95;0.63;;;16.40;99.90;;;;;;5095302;28;20387;-75
2023/09/17 03:26:33;;;;;;;0.50;0.50;;;16.40;99.90;;;;;;5095706;28;20075;-76
2023/09/17 03:28:59;;;;;;;0.70;0.70;;;16.40;99.90;;;;;;5095429;28;20086;-75
2023/09/17 03:31:26;;;;;;;0.50;0.50;;;16.40;99.90;;;;;;5095194;28;20375;-73
2023/09/17 03:33:51;;;;;;;0.60;0.60;;;16.40;99.90;;;;;;5095106;28;20078;-72
2023/09/17 03:36:17;;;;;;;0.73;0.67;;;16.30;99.90;;;;;;5095160;28;20067;-72
2023/09/17 03:38:43;;;;;;;0.37;0.37;;;16.40;99.90;;;;;;5093969;28;20055;-75
2023/09/17 03:41:08;;;;;;;0.57;0.57;;;16.30;99.90;;;;;;5094103;28;20040;-72
2023/09/17 03:43:34;;;;;;;0.90;0.73;;;16.30;99.90;;;;;;5094921;28;20466;-71
2023/09/17 03:46:04;;;;;;;1.73;1.27;;;16.30;99.90;;;;;;5093958;28;20040;-71
2023/09/17 03:48:31;;;;;;;1.02;0.85;;;16.30;99.90;;;;;;5094869;28;20036;-73
2023/09/17 03:50:57;;;;;;;0.55;0.55;;;16.30;99.90;;;;;;5094801;28;20529;-72
2023/09/17 03:53:23;;;;;;;0.50;0.50;;;16.30;99.90;;;;;;5094773;28;20119;-74
2023/09/17 03:55:49;;;;;;;1.13;0.80;;;16.20;99.90;;;;;;5094756;28;20089;-73
2023/09/17 03:58:15;;;;;;;1.13;0.77;;;16.20;99.90;;;;;;5095098;28;20036;-73
2023/09/17 04:00:44;;;;;;;0.45;0.45;;;16.20;99.90;;;;;;5094641;28;20036;-74
2023/09/17 04:03:09;;;;;;;0.98;0.68;;;16.20;99.90;;;;;;5095187;28;20043;-72
2023/09/17 04:05:36;;;;;;;0.77;0.73;;;16.20;99.90;;;;;;5094583;28;20043;-76
2023/09/17 04:08:03;;;;;;;0.82;0.65;;;16.20;99.90;;;;;;5093863;28;20036;-71
2023/09/17 04:10:28;;;;;;;1.08;0.82;;;16.20;99.90;;;;;;5094983;28;20071;-75
2023/09/17 04:12:54;;;;;;;0.47;0.47;;;16.20;99.90;;;;;;5094586;28;20102;-74
2023/09/17 04:15:20;;;;;;;0.53;0.53;;;16.10;99.90;;;;;;5094309;28;20372;-74
2023/09/17 04:17:48;;;;;;;0.60;0.53;;;16.10;99.90;;;;;;5092972;28;20044;-75
2023/09/17 04:20:18;;;;;;;0.65;0.57;;;16.10;99.90;;;;;;5094309;28;20040;-73
2023/09/17 04:22:48;;;;;;;1.25;0.65;;;16.20;99.90;;;;;;5094217;28;20089;-72
2023/09/17 04:25:17;;;;;;;0.55;0.55;;;16.10;99.90;;;;;;5094327;28;20468;-73
2023/09/17 04:27:44;;;;;;;0.80;0.43;;;16.10;99.90;;;;;;5094181;28;20036;-75
2023/09/17 04:30:13;;;;;;;0.65;0.65;;;16.10;99.90;;;;;;5093823;28;20478;-74
2023/09/17 04:32:41;;;;;;;0.52;0.52;;;16.10;99.90;;;;;;5094089;28;20378;-73
2023/09/17 04:35:12;;;;;;;1.27;1.17;;;16.10;99.90;;;;;;5094035;28;20040;-75
2023/09/17 04:37:39;;;;;;;2.35;0.77;;;16.00;99.90;;;;;;5093859;28;20043;-75
2023/09/17 04:40:11;;;;;;;3.42;1.65;;;16.00;99.90;;;;;;5094007;28;20051;-73
2023/09/17 04:42:38;;;;;;;0.77;0.73;;;16.00;99.90;;;;;;5093857;28;20032;-73
2023/09/17 04:45:05;;;;;;;0.45;0.40;;;16.00;99.90;;;;;;5093934;28;20036;-77
2023/09/17 04:47:33;;;;;;;1.17;0.95;;;16.00;99.90;;;;;;5092880;28;20123;-73
2023/09/17 04:49:58;;;;;;;0.45;0.40;;;16.00;99.90;;;;;;5093796;28;20054;-72
2023/09/17 04:52:24;;;;;;;1.33;1.07;;;15.90;99.90;;;;;;5093671;28;20032;-72
2023/09/17 04:54:49;;;;;;;1.70;1.13;;;16.00;99.90;;;;;;5093799;28;20082;-73
2023/09/17 04:57:15;;;;;;;1.43;1.23;;;16.00;99.90;;;;;;5093727;28;20383;-72
2023/09/17 04:59:41;;;;;;;0.67;0.67;;;15.90;99.90;;;;;;5093796;28;20044;-73
2023/09/17 05:02:07;;;;;;;1.48;0.80;;;15.90;99.90;;;;;;5093762;28;20051;-74
2023/09/17 05:04:33;;;;;;;1.40;0.83;;;16.00;99.90;;;;;;5093391;28;20083;-76
2023/09/17 05:06:59;;;;;;;1.87;1.30;;;15.90;99.90;;;;;;5093777;28;20040;-76
2023/09/17 05:09:26;;;;;;;2.53;1.53;;;15.90;99.90;;;;;;5093865;28;20109;-74
2023/09/17 05:11:51;;;;;;;2.47;1.35;;;15.90;99.90;;;;;;5093682;28;20495;-76
2023/09/17 05:14:17;;;;;;;1.57;1.47;;;15.90;99.90;;;;;;5093722;28;20070;-74
2023/09/17 05:16:43;;;;;;;0.60;0.60;;;15.90;99.90;;;;;;5093450;28;20107;-76
2023/09/17 05:19:09;;;;;;;0.90;0.90;;;15.90;99.90;;;;;;5093576;28;20126;-77
2023/09/17 05:21:35;;;;;;;0.50;0.50;;;16.00;99.90;;;;;;5093497;28;20066;-74
2023/09/17 05:24:01;;;;;;;0.70;0.65;;;15.90;99.90;;;;;;5092566;28;20039;-73
2023/09/17 05:26:26;;;;;;;0.60;0.60;;;15.90;99.90;;;;;;5093541;28;20491;-74
2023/09/17 05:28:52;;;;;;;0.73;0.73;;;15.90;99.90;;;;;;5093249;28;20043;-74
2023/09/17 05:31:17;;;;;;;0.77;0.77;;;16.00;99.90;;;;;;5093239;28;20042;-77
2023/09/17 05:33:43;;;;;;;1.63;0.90;;;15.90;99.90;;;;;;5093221;28;20040;-76
2023/09/17 05:36:09;;;;;;;1.07;0.93;;;15.90;99.90;;;;;;5093452;28;20131;-75
2023/09/17 05:38:34;;;;;;;1.00;0.90;;;16.00;99.90;;;;;;5093147;28;20051;-74
2023/09/17 05:41:01;;;;;;;1.23;1.13;;;16.00;99.90;;;;;;5093364;28;20036;-72
2023/09/17 05:43:26;;;;;;;0.65;0.65;;;16.00;99.90;;;;;;5092395;28;20040;-73
2023/09/17 05:45:56;;;;;;;1.50;1.00;;;16.00;99.90;;;;;;5093308;28;20421;-76
2023/09/17 05:48:22;;;;;;;0.85;0.73;;;16.10;99.90;;;;;;5093214;28;20435;-76
2023/09/17 05:50:50;;;;;;;1.40;0.95;;;16.00;99.90;;;;;;5093314;28;20070;-74
2023/09/17 05:53:16;;;;;;;0.70;0.70;;;16.00;99.90;;;;;;5093456;28;20144;-74
2023/09/17 05:55:42;;;;;;;1.10;1.00;;;16.10;99.90;;;;;;5093266;28;20128;-76
2023/09/17 05:58:08;;;;;;;1.50;0.95;;;16.10;99.90;;;;;;5093169;28;20403;-74
2023/09/17 06:00:33;;;;;;;0.50;0.50;;;16.10;99.90;;;;;;5093203;28;20040;-74
2023/09/17 06:02:59;;;;;;;3.63;0.80;;;16.20;99.90;;;;;;5093628;28;20044;-77
2023/09/17 06:05:25;;;;;;;1.53;0.70;;;16.20;99.90;;;;;;5096864;28;20109;-77
2023/09/17 06:07:51;;;;;;;1.40;0.80;;;16.20;99.90;;;;;;5096659;28;20136;-75
2023/09/17 06:10:17;;;;;;;1.37;1.20;;;16.30;99.90;;;;;;5096567;28;20383;-77
2023/09/17 06:12:42;;;;;;;1.70;1.17;;;16.30;99.90;;;;;;5096595;28;20043;-75
2023/09/17 06:15:08;;;;;;;1.80;0.97;;;16.30;99.90;;;;;;5096708;28;20517;-76
2023/09/17 06:17:34;;;;;;;0.97;0.90;;;16.30;99.90;;;;;;5096571;28;20046;-77
2023/09/17 06:20:00;;;;;;;1.40;0.97;;;16.30;99.90;;;;;;5097001;28;20699;-75
2023/09/17 06:22:25;;;;;;;0.97;0.80;;;16.40;99.90;;;;;;5096776;28;20040;-74
2023/09/17 06:24:51;;;;;;;0.80;0.80;;;16.40;99.90;;;;;;5096566;28;20036;-74
2023/09/17 06:27:17;;;;;;;1.17;1.00;;;16.40;99.90;;;;;;5096704;28;20546;-74
2023/09/17 06:29:43;;;;;;;0.53;0.53;;;16.40;99.90;;;;;;5096434;28;20036;-75
2023/09/17 06:32:08;;;;;;;1.67;1.33;;;16.40;99.90;;;;;;5095895;28;20036;-76
2023/09/17 06:34:35;;;;;;;2.00;1.30;;;16.40;99.90;;;;;;5096393;28;20118;-77
2023/09/17 06:37:01;;;;;;;1.60;1.50;;;16.40;99.90;;;;;;5095819;28;20460;-73
2023/09/17 06:39:27;;;;;;;1.02;0.93;;;16.40;99.90;;;;;;5096279;28;20047;-75
2023/09/17 06:41:53;;;;;;;1.47;1.37;;;16.40;99.90;;;;;;5096198;28;20356;-73
2023/09/17 06:44:18;;;;;;;1.10;1.03;;;16.40;99.90;;;;;;5096146;28;20040;-75
2023/09/17 06:46:44;;;;;;;4.30;1.70;;;16.40;99.90;;;;;;5096086;28;20040;-75
2023/09/17 06:49:10;;;;;;;2.17;1.83;;;16.40;99.90;;;;;;5096391;28;20439;-74
2023/09/17 06:51:36;;;;;;;2.70;1.53;;;16.40;99.90;;;;;;5096007;28;20040;-74
2023/09/17 06:54:03;;;;;;;1.27;0.80;;;16.40;99.90;;;;;;5095966;28;20289;-75
2023/09/17 06:56:29;;;;;;;1.33;1.10;;;16.50;99.90;;;;;;5095846;28;20047;-75
2023/09/17 06:58:55;;;;;;;0.50;0.50;;;16.40;99.90;;;;;;5095784;28;20075;-73
2023/09/17 07:01:20;;;;;;;1.90;1.37;;;16.40;99.90;;;;;;5095666;28;20040;-73
2023/09/17 07:03:46;;;;;;;2.20;1.27;;;16.40;99.90;;;;;;5095589;28;20673;-75
2023/09/17 07:06:13;;;;;;;1.02;0.80;;;16.40;99.90;;;;;;5095668;28;20051;-73
2023/09/17 07:08:38;;;;;;;1.42;1.33;;;16.50;99.90;;;;;;5095613;28;20089;-74
2023/09/17 07:11:04;;;;;;;3.33;1.47;;;16.50;99.90;;;;;;5094660;28;20039;-76
2023/09/17 07:13:30;;;;;;;1.80;1.30;;;16.70;99.90;;;;;;5095633;28;20035;-76
2023/09/17 07:15:56;;;;;;;1.63;1.27;;;16.70;99.90;;;;;;5094242;28;20209;-79
2023/09/17 07:18:22;;;;;;;1.57;1.33;;;16.80;99.90;;;;;;5095072;28;20127;-76
2023/09/17 07:20:49;;;;;;;2.05;1.50;;;16.80;99.90;;;;;;5095335;28;20464;-75
2023/09/17 07:23:16;;;;;;;1.17;1.08;;;16.90;99.90;;;;;;5095172;28;20541;-76
2023/09/17 07:25:41;;;;;;;1.08;0.90;;;16.90;99.90;;;;;;5095143;28;20044;-74
2023/09/17 07:28:07;;;;;;;2.37;1.70;;;17.00;99.90;;;;;;5111303;28;20131;-75
2023/09/17 07:30:37;;;;;;;2.00;1.17;;;17.00;99.90;;;;;;5094948;28;20177;-76
2023/09/17 07:33:04;;;;;;;1.92;1.67;;;17.10;99.90;;;;;;5095025;28;20396;-78
2023/09/17 07:35:29;;;;;;;;;;;17.10;99.90;;;;;;5095862;28;20387;-76
2023/09/17 07:37:55;;;;;;;1.67;1.30;;;17.10;99.90;;;;;;5094952;28;19916;-75
2023/09/17 07:40:21;;;;;;;2.47;1.67;;;17.10;99.90;;;;;;5094817;28;20035;-75
2023/09/17 07:42:47;;;;;;;0.90;0.80;;;17.10;99.90;;;;;;5094876;28;20047;-75
2023/09/17 07:45:13;;;;;;;0.55;0.50;;;17.20;99.90;;;;;;5094880;28;20048;-76
2023/09/17 07:47:39;;;;;;;1.67;1.50;;;17.20;99.90;;;;;;5094959;28;20042;-76
2023/09/17 07:50:05;;;;;;;1.40;1.30;;;17.20;99.90;;;;;;5095317;28;20047;-76
2023/09/17 07:52:31;;;;;;;1.17;1.00;;;17.20;99.90;;;;;;5095109;28;20043;-75
2023/09/17 07:54:57;;;;;;;0.67;0.57;;;17.20;99.90;;;;;;5094539;28;20032;-77
2023/09/17 07:57:22;;;;;;;2.87;1.23;;;17.20;99.90;;;;;;5094758;28;20058;-75
2023/09/17 07:59:49;;;;;;;1.00;0.87;;;17.30;99.90;;;;;;5094679;28;20491;-75
2023/09/17 08:02:15;;;;;;;0.95;0.90;;;17.30;99.90;;;;;;5094552;28;20044;-74
2023/09/17 08:04:40;;;;;;;1.30;0.90;;;17.40;99.90;;;;;;5094645;28;20044;-73
2023/09/17 08:07:06;;;;;;;3.33;1.17;;;17.40;99.90;;;;;;5094164;28;20571;-73
2023/09/17 08:09:32;;;;;;;1.37;1.27;;;17.50;99.90;;;;;;5095050;28;20055;-74
2023/09/17 08:11:58;;;;;;;0.70;0.63;;;17.50;99.90;;;;;;5094398;28;20090;-75
2023/09/17 08:14:25;;;;;;;0.85;0.70;;;17.60;99.90;;;;;;5094732;28;20131;-72
2023/09/17 08:16:51;;;;;;;;;;;17.70;99.90;;;;;;5094719;28;20070;-73
2023/09/17 08:19:17;;;;;;;1.05;0.80;;;17.80;99.90;;;;;;5094332;28;19916;-74
2023/09/17 08:21:43;;;;;;;1.03;0.73;;;17.80;99.90;;;;;;5094210;28;20059;-76
2023/09/17 08:24:10;;;;;;;1.07;0.80;;;17.90;99.90;;;;;;5094339;28;20042;-74
2023/09/17 08:26:36;;;;;;;1.55;1.33;;;17.90;99.90;;;;;;5093801;28;20055;-73
2023/09/17 08:29:01;;;;;;;0.93;0.90;;;17.90;99.90;;;;;;5093045;28;20044;-75
2023/09/17 08:31:28;;;;;;;1.23;1.13;;;18.00;99.90;;;;;;5094196;28;20042;-75
2023/09/17 08:33:53;;;;;;;1.30;1.20;;;18.10;99.90;;;;;;5094147;28;20047;-74
2023/09/17 08:36:21;;;;;;;1.40;1.17;;;18.10;99.90;;;;;;5094389;28;20036;-78
2023/09/17 08:38:49;;;;;;;1.10;1.00;;;18.10;99.90;;;;;;5094102;28;20371;-76
2023/09/17 08:41:18;;;;;;;1.23;0.95;;;18.10;99.90;;;;;;5094085;28;20127;-74
2023/09/17 08:43:44;;;;;;;1.27;0.85;;;18.20;99.90;;;;;;5093950;28;20044;-76
2023/09/17 08:46:11;;;;;;;2.25;1.52;;;18.20;99.90;;;;;;5093892;28;20038;-77
2023/09/17 08:48:37;;;;;;;3.23;1.47;;;18.30;99.90;;;;;;5093904;28;20039;-72
2023/09/17 08:51:03;;;;;;;3.10;1.60;;;18.40;99.90;;;;;;5092653;28;20109;-74
2023/09/17 08:53:35;;;;;;;1.02;0.82;;;18.40;99.90;;;;;;5093979;28;20089;-74
2023/09/17 08:56:03;;;;;;;2.28;1.08;;;18.40;99.90;;;;;;5094388;28;20402;-74
2023/09/17 08:58:38;;;;;;;0.73;0.73;;;18.40;99.90;;;;;;5093749;28;20376;-78
2023/09/17 09:01:07;;;;;;;0.90;0.70;;;18.40;99.90;;;;;;5093812;28;20042;-74
2023/09/17 09:03:35;;;;;;;1.92;0.90;;;18.40;99.90;;;;;;5093711;28;20047;-73
2023/09/17 09:06:03;;;;;;;0.95;0.60;;;18.40;99.90;;;;;;5093773;28;20349;-73
2023/09/17 09:08:32;;;;;;;2.25;0.98;;;18.40;99.90;;;;;;5093850;28;20044;-75
2023/09/17 09:10:59;;;;;;;1.30;1.20;;;18.40;99.90;;;;;;5093770;28;20066;-77
2023/09/17 09:13:25;;;;;;;1.30;1.20;;;18.40;99.90;;;;;;5093410;28;20042;-74
2023/09/17 09:15:51;;;;;;;2.95;1.48;;;18.40;99.90;;;;;;5093625;28;20131;-76
2023/09/17 09:18:16;;;;;;;0.87;0.80;;;18.40;99.90;;;;;;5093544;28;20118;-75
2023/09/17 09:20:42;;;;;;;1.50;1.00;;;18.50;99.90;;;;;;5093610;28;20044;-75
2023/09/17 09:23:08;;;;;;;0.57;0.57;;;18.50;99.90;;;;;;5093626;28;20044;-75
2023/09/17 09:25:34;;;;;;;3.07;1.70;;;18.50;99.90;;;;;;5093379;28;20050;-75
2023/09/17 09:28:03;;;;;;;2.53;1.05;;;18.60;99.90;;;;;;5093531;28;20044;-73
2023/09/17 09:30:29;;;;;;;0.73;0.63;;;18.50;99.90;;;;;;5093490;28;20529;-76
2023/09/17 09:32:56;;;;;;;0.88;0.60;;;18.50;99.90;;;;;;5093450;28;20047;-74
2023/09/17 09:35:23;;;;;;;0.73;0.73;;;18.50;99.90;;;;;;5093458;28;20130;-73
2023/09/17 09:37:51;;;;;;;0.90;0.88;;;18.50;99.90;;;;;;5093621;28;20490;-75
2023/09/17 09:40:17;;;;;;;1.10;0.70;;;18.50;99.90;;;;;;5096975;28;20413;-72
2023/09/17 09:42:43;;;;;;;1.85;0.95;;;18.50;99.90;;;;;;5096903;28;20483;-74
2023/09/17 09:45:15;;;;;;;0.47;0.47;;;18.60;99.90;;;;;;5097144;28;20067;-73
2023/09/17 09:47:47;;;;;;;0.80;0.73;;;18.60;99.90;;;;;;5097229;28;20040;-74
2023/09/17 09:50:27;;;;;;;4.03;1.50;;;18.70;99.90;;;;;;5097080;28;20044;-72
2023/09/17 09:52:54;;;;;;;1.10;1.00;;;18.70;99.90;;;;;;5096837;28;20039;-75
2023/09/17 09:55:24;;;;;;;;;;;18.80;99.90;;;;;;5097524;28;20048;-75
2023/09/17 09:57:50;;;;;;;0.73;0.73;;;18.90;99.90;;;;;;5095797;28;19922;-75
2023/09/17 10:00:20;;;;;;;1.35;0.80;;;19.00;99.90;;;;;;5096781;28;20052;-74
2023/09/17 10:02:46;;;;;;;2.25;0.93;;;19.20;99.90;;;;;;5096817;28;20105;-75
2023/09/17 10:05:16;;;;;;;1.20;1.10;;;19.30;99.90;;;;;;5097037;28;20043;-75
2023/09/17 10:07:45;;;;;;;2.17;0.95;;;19.40;99.90;;;;;;5096796;28;20109;-76
2023/09/17 10:10:11;;;;;;;0.50;0.50;;;19.50;99.90;;;;;;5096933;28;20052;-74
2023/09/17 10:12:37;;;;;;;2.17;0.93;;;19.60;99.90;;;;;;5096756;28;20089;-71
2023/09/17 10:15:04;;;;;;;1.17;0.90;;;19.60;99.90;;;;;;5096723;28;20082;-72
2023/09/17 10:17:33;;;;;;;1.02;0.93;;;19.70;99.90;;;;;;5096572;28;20385;-79
2023/09/17 10:20:00;;;;;;;1.23;0.93;;;19.70;99.90;;;;;;5096950;28;20379;-83
2023/09/17 10:22:26;;;;;;;0.93;0.85;;;19.80;99.90;;;;;;5096609;28;20047;-75
2023/09/17 10:24:53;;;;;;;9.70;1.10;;;19.90;99.90;;;;;;5096563;28;20094;-75
2023/09/17 10:27:21;;;;;;;1.38;1.25;;;20.00;99.90;;;;;;5096500;28;20040;-76
2023/09/17 10:29:50;;;;;;;1.33;1.23;;;20.00;99.90;;;;;;5096442;28;20070;-75
2023/09/17 10:32:18;;;;;;;0.43;0.40;;;20.00;99.90;;;;;;5096297;28;20467;-75
2023/09/17 10:34:46;;;;;;;0.70;0.70;;;20.00;99.90;;;;;;5095968;28;20040;-75
2023/09/17 10:37:16;;;;;;;2.03;1.23;;;20.00;99.90;;;;;;5096261;28;20367;-75
2023/09/17 10:39:43;;;;;;;1.35;1.25;;;20.00;99.90;;;;;;5096565;28;20083;-77
2023/09/17 10:42:11;;;;;;;0.90;0.80;;;20.00;99.90;;;;;;5096073;28;20050;-73
2023/09/17 10:44:39;;;;;;;1.45;0.75;;;20.00;99.90;;;;;;5096139;28;20047;-74
2023/09/17 10:47:09;;;;;;;0.32;0.32;;;20.00;99.90;;;;;;5096077;28;20040;-74
2023/09/17 10:49:37;;;;;;;0.55;0.55;;;19.90;99.90;;;;;;5095687;28;20360;-73
2023/09/17 10:52:05;;;;;;;0.77;0.70;;;19.80;99.90;;;;;;5095903;28;20127;-74
2023/09/17 10:54:31;;;;;;;0.65;0.65;;;19.80;99.90;;;;;;5095950;28;20085;-76
2023/09/17 10:56:57;;;;;;;0.50;0.50;;;19.70;99.90;;;;;;5094211;28;20063;-77
2023/09/17 10:59:23;;;;;;;0.77;0.70;;;19.70;99.90;;;;;;5095888;28;20040;-76
2023/09/17 11:01:50;;;;;;;0.65;0.65;;;19.80;99.90;;;;;;5095597;28;20075;-76
2023/09/17 11:04:21;;;;;;;1.33;0.70;;;19.80;99.90;;;;;;5095769;28;20048;-76
2023/09/17 11:06:49;;;;;;;2.35;1.30;;;20.00;99.90;;;;;;5095990;28;20043;-76
2023/09/17 11:09:15;;;;;;;0.75;0.75;;;20.20;99.90;;;;;;5095607;28;20048;-71
2023/09/17 11:11:41;;;;;;;0.93;0.83;;;20.30;99.90;;;;;;5095893;28;20073;-75
2023/09/17 11:14:08;;;;;;;0.73;0.63;;;20.40;99.90;;;;;;5095597;28;20289;-75
2023/09/17 11:16:35;;;;;;;0.65;0.65;;;20.50;99.90;;;;;;5095419;28;20090;-75
2023/09/17 11:19:14;;;;;;;1.05;0.70;;;20.60;99.90;;;;;;5095423;28;20055;-76
2023/09/17 11:21:48;;;;;;;1.00;0.75;;;20.70;99.90;;;;;;5095444;28;20082;-71
2023/09/17 11:24:14;;;;;;;0.60;0.60;;;20.90;99.90;;;;;;5095399;28;20040;-71
2023/09/17 11:26:42;;;;;;;4.90;0.90;;;21.10;99.90;;;;;;5095346;28;20028;-72
2023/09/17 11:29:09;;;;;;;3.55;1.15;;;21.20;99.90;;;;;;5095276;28;20055;-76
2023/09/17 11:31:56;;;;;;;1.42;1.15;;;21.40;99.90;;;;;;5094616;28;20126;-75
2023/09/17 11:34:22;;;;;;;0.63;0.63;;;21.50;99.90;;;;;;5083843;28;20048;-75
2023/09/17 11:36:48;;;;;;;1.03;1.00;;;21.60;99.90;;;;;;5094821;28;20063;-75
2023/09/17 11:39:20;;;;;;;1.15;1.05;;;21.70;99.90;;;;;;5094869;28;20039;-75
2023/09/17 11:41:50;;;;;;;0.63;0.63;;;21.80;99.90;;;;;;5095031;28;20062;-75
2023/09/17 11:44:17;;;;;;;1.63;1.10;;;21.80;99.90;;;;;;5094997;28;20052;-75
2023/09/17 11:46:43;;;;;;;1.20;1.10;;;21.70;99.90;;;;;;5094947;28;20032;-75
2023/09/17 11:49:13;;;;;;;1.52;0.98;;;21.70;99.90;;;;;;5094834;28;20043;-75
2023/09/17 11:51:46;;;;;;;1.20;0.88;;;21.70;99.90;;;;;;5094771;28;20409;-75
2023/09/17 11:54:23;;;;;;;1.35;0.93;;;21.60;99.90;;;;;;5093585;28;20131;-75
2023/09/17 11:56:53;;;;;;;0.70;0.70;;;21.70;99.90;;;;;;5095073;28;20043;-75
2023/09/17 11:59:20;;;;;;;1.27;0.93;;;21.70;99.90;;;;;;5094978;28;20383;-75
2023/09/17 12:01:53;;;;;;;1.38;1.00;;;21.70;99.90;;;;;;5094026;28;20058;-75
2023/09/17 12:04:22;;;;;;;0.65;0.55;;;21.80;99.90;;;;;;5094751;28;20047;-75
2023/09/17 12:06:50;;;;;;;0.57;0.57;;;21.90;99.90;;;;;;5094594;28;20453;-75
2023/09/17 12:12:01;;;;;;;0.65;0.55;;;22.00;99.90;;;;;;5094570;28;20135;-75
2023/09/17 12:14:27;;;;;;;0.50;0.50;;;22.10;99.90;;;;;;5094341;28;20163;-75
2023/09/17 12:16:53;;;;;;;1.07;0.83;;;22.20;99.90;;;;;;5094465;28;20081;-75
2023/09/17 12:19:20;;;;;;;1.00;0.88;;;22.30;99.90;;;;;;5094340;28;20289;-74
2023/09/17 12:21:48;;;;;;;0.88;0.85;;;22.30;99.90;;;;;;5095178;28;20131;-75
2023/09/17 12:24:19;;;;;;;1.67;0.82;;;22.40;99.90;;;;;;5094286;28;20044;-75
2023/09/17 12:27:14;;;;;;;1.77;0.85;;;22.40;99.90;;;;;;5094249;28;20040;-75
2023/09/17 12:29:41;;;;;;;1.20;1.05;;;22.40;99.90;;;;;;5094180;28;20048;-74
2023/09/17 12:32:08;;;;;;;1.15;0.98;;;22.40;99.90;;;;;;5094809;28;20055;-75
2023/09/17 12:34:37;;;;;;;1.52;1.42;;;22.40;99.90;;;;;;5094104;28;20039;-75
2023/09/17 12:37:06;;;;;;;4.15;2.10;;;22.40;99.90;;;;;;5094123;28;20043;-75
2023/09/17 12:39:32;;;;;;;0.80;0.80;;;22.30;99.90;;;;;;5094564;28;20374;-75
2023/09/17 12:41:58;;;;;;;0.73;0.73;;;22.30;99.90;;;;;;5094039;28;20059;-75
2023/09/17 12:44:26;;;;;;;0.67;0.53;;;22.30;99.90;;;;;;5093922;28;20078;-75
2023/09/17 12:46:52;;;;;;;0.57;0.55;;;22.30;99.90;;;;;;5094331;28;20097;-75
2023/09/17 12:49:18;;;;;;;0.70;0.70;;;22.30;99.90;;;;;;5094521;28;20044;-75